Details From RCMQ - CHING CHUAN KANG AB
To RCSS - Sungshan
Flight Number -
Tags generated
Created
Modified
Stats Distance 73 nm / 134 km
Max Altitude 8,500 ft / 2,591 m
Waypoints 3
Social Downloads 0
Likes 0
Share VATSIM

Download

Looking for another format? Having issues loading an existing format? Contact us
Advertisement - Login to hide

Notes

Basic altitude profile: - Ascent Rate: 2500ft/min - Ascent Speed: 250kts - Cruise Altitude: 35000ft - Cruise Speed: 420kts - Descent Rate: 1500ft/min - Descent Speed: 250kts Options: - Use NATs: yes - Use PACOTS: yes - Use low airways: yes - Use high airways: yes

Route

RCMQ PILOX RCSS

ID Type Via Altitude Latitude Longitude Leg Dist Tot Dist Heading (true) Name
O RCMQ APT - 0 ft / 0 m 24.26496˚ 120.62080˚ - 0 nm - CHING CHUAN KANG AB
PILOX FIX - 8,500 ft / 2,591 m 24.41500˚ 121.02472˚ 23 nm 23 nm 68° / 68° -
O RCSS APT - 0 ft / 0 m 25.06959˚ 121.55257˚ 48 nm 72 nm 36° / 36° Sungshan

Altitude Profile

Advertisement - Login to hide

RCMQ

Details ICAO RCMQ (RMQ)
Name CHING CHUAN KANG AB
Region Republic of China (Taiwan)
Timezone Asia/Taipei (UTC+8.0)
Stats Elevation 663 ft / 202 m (AMSL)
Location 24.264960° 120.620805°
Runways 1
Magnetic Variation 4.185° W

METAR

RCMQ 161100Z 02028G39KT 9999 SCT004 BKN014 BKN030 12/10 Q1020 NOSIG RMK A3015

Decode

TAF

TAF RCMQ 160500Z 1606/1706 01020KT 9999 SCT006 BKN014 OVC030 TX16/1704Z TN13/1620Z BECMG 1612/1615 01025KT 7000 FEW010 SCT025 BKN050 BECMG 1701/1704 SCT008 BKN020

Decode

Departure Runways

ID Width Length Bearing (true) Bearing (mag) Surface Threshold Offset Overrun Length
18 148 ft / 45 m 12,059 ft / 3,676 m 176.52° 180.71° Concrete 0 ft / 0 m 1,000 ft / 305 m
36 148 ft / 45 m 12,059 ft / 3,676 m 356.52° 0.71° Concrete 0 ft / 0 m 1,000 ft / 305 m

RCSS

Details ICAO RCSS (TSA)
Name Sungshan
Region Republic of China (Taiwan)
Timezone Asia/Taipei (UTC+8.0)
Stats Elevation 18 ft / 5 m (AMSL)
Location 25.069586° 121.552570°
Runways 1
Magnetic Variation 4.481° W

METAR

RCSS 161100Z 08003KT 020V140 9999 -DZ FEW010 BKN025 BKN050 15/11 Q1027 NOSIG RMK A3034

Decode

TAF

TAF RCSS 160500Z 1606/1706 08008KT 9999 FEW012 BKN025 TEMPO 1606/1612 4000 RA FEW012 BKN015 BECMG 1612/1614 09013KT

Decode

Destination Runways

ID Width Length Bearing (true) Bearing (mag) Surface Threshold Offset Overrun Length
10 197 ft / 60 m 8,566 ft / 2,611 m 92.26° 96.74° Asphalt 0 ft / 0 m 197 ft / 60 m
28 197 ft / 60 m 8,566 ft / 2,611 m 272.27° 276.75° Asphalt 0 ft / 0 m 525 ft / 160 m

Approach Navaids

Runway Type Ident Frequency Range Bearing (true) Bearing (mag) Slope Elevation
10 Localiser ITSG 108.90 MHz 18 nm / 33 km 92.23° 96.71° - 13 ft / 4 m (AMSL)
10 Glidescope ITSG 108.90 MHz 10 nm / 19 km 92.27° 96.75° 3.00° 12 ft / 4 m (AMSL)
10 DME ITSG 108.90 MHz 18 nm / 33 km - - - 18 ft / 5 m (AMSL)
28 Localiser ITLU 108.10 MHz 18 nm / 33 km 264.28° 268.76° - 18 ft / 5 m (AMSL)
28 DME ITLU 108.10 MHz 18 nm / 33 km - - - 18 ft / 5 m (AMSL)

Popular Alternatives